Welcome to Northern Hawkes Bay. New Zealand.
PWS Header
      nz Flag



Hit Counter


W3C Valid W3C Valid logo


    Wairoa

Select any of the Stations below to visit their websites.










Historic Data from Weather Underground
Select the location of interest below. Wairoa is the default. Please have patience, this Data is slow to load in.
Northern Hawkes Bay Historical Data
Daily Summary for December 9, 2017 Units:  Both    English   Metric
« Previous Day
Next Day »
Daily Weekly Monthly Yearly Custom
  High: Low: Average:
Temperature: 84.2 °F /  29.0 °C 59.4 °F /  15.2 °C 73.6 °F /  23.1 °C
Dew Point: 61 °F /  16.1 °C 55.4 °F /  13.0 °C 57.9 °F /  14.4 °C
Humidity: 93% 38% 61%
Wind Speed: 13.6mph /  21.9km/h - 3.7mph /  5.9km/h
Wind Gust: 20.6mph /  33.1km/h - -
Wind- - SSW
Pressure: 30.2 in /  1020.9 hPa 30 in /  1016.1 hPa -
Precipitation: 0 in /  0.0 mm    
Historical Graphs
 
 
Tabular Data for December 9, 2017
Time Temperature Dew Point Pressure Wind Wind Speed Wind Gust Humidity Rainfall Rate (Hourly) solar
00:06 66.7 °F /  19.3 °C 58.3 °F /  14.6 °C 30.1in /  1019.5hPa Calm   4.5mph /  7.2km/h 74% 0in /  0.0mm 0 W/m2
00:11 66.4 °F /  19.1 °C 58.3 °F /  14.6 °C 30.1in /  1019.5hPa Calm   3.8mph /  6.1km/h 75% 0in /  0.0mm 0 W/m2
00:16 66.2 °F /  19.0 °C 58.1 °F /  14.5 °C 30.1in /  1019.5hPa Calm   3.1mph /  5.0km/h 75% 0in /  0.0mm 0 W/m2
00:21 66 °F /  18.9 °C 58.3 °F /  14.6 °C 30.1in /  1019.9hPa NW 0.7mph /  1.1km/h 3.8mph /  6.1km/h 76% 0in /  0.0mm 0 W/m2
00:31 65.7 °F /  18.7 °C 58.3 °F /  14.6 °C 30.1in /  1019.5hPa NW 0.7mph /  1.1km/h 4.5mph /  7.2km/h 77% 0in /  0.0mm 0 W/m2
00:36 65.5 °F /  18.6 °C 58.1 °F /  14.5 °C 30.1in /  1019.9hPa NNW 0.7mph /  1.1km/h 3.1mph /  5.0km/h 77% 0in /  0.0mm 0 W/m2
00:41 65.5 °F /  18.6 °C 58.5 °F /  14.7 °C 30.1in /  1019.5hPa NNW 0.7mph /  1.1km/h 3.1mph /  5.0km/h 78% 0in /  0.0mm 0 W/m2
00:46 65.5 °F /  18.6 °C 58.5 °F /  14.7 °C 30.1in /  1019.5hPa NNW 0.7mph /  1.1km/h 4.5mph /  7.2km/h 78% 0in /  0.0mm 0 W/m2
00:51 65.5 °F /  18.6 °C 58.5 °F /  14.7 °C 30.1in /  1019.5hPa Calm   4.5mph /  7.2km/h 78% 0in /  0.0mm 0 W/m2
00:56 65.5 °F /  18.6 °C 58.5 °F /  14.7 °C 30.1in /  1019.5hPa Calm   4.5mph /  7.2km/h 78% 0in /  0.0mm 0 W/m2
01:02 65.5 °F /  18.6 °C 58.5 °F /  14.7 °C 30.1in /  1019.5hPa NNW 0.7mph /  1.1km/h 3.1mph /  5.0km/h 78% 0in /  0.0mm 0 W/m2
01:12 65.3 °F /  18.5 °C 58.3 °F /  14.6 °C 30.1in /  1019.5hPa Calm   3.1mph /  5.0km/h 78% 0in /  0.0mm 0 W/m2
01:27 65.3 °F /  18.5 °C 58.3 °F /  14.6 °C 30.1in /  1019.2hPa Calm   2.2mph /  3.5km/h 78% 0in /  0.0mm 0 W/m2
01:37 65.3 °F /  18.5 °C 58.3 °F /  14.6 °C 30.1in /  1019.5hPa Calm   4.5mph /  7.2km/h 78% 0in /  0.0mm 0 W/m2
01:43 65.7 °F /  18.7 °C 58.3 °F /  14.6 °C 30.1in /  1019.2hPa NNW 1.6mph /  2.6km/h 6.9mph /  11.1km/h 77% 0in /  0.0mm 0 W/m2
01:48 65.7 °F /  18.7 °C 58.3 °F /  14.6 °C 30.1in /  1019.2hPa Calm   3.1mph /  5.0km/h 77% 0in /  0.0mm 0 W/m2
01:53 65.5 °F /  18.6 °C 58.1 °F /  14.5 °C 30.1in /  1019.2hPa Calm   3.1mph /  5.0km/h 77% 0in /  0.0mm 0 W/m2
01:58 65.7 °F /  18.7 °C 58.3 °F /  14.6 °C 30.1in /  1019.2hPa Calm   5.4mph /  8.7km/h 77% 0in /  0.0mm 0 W/m2
02:03 65.8 °F /  18.8 °C 58.5 °F /  14.7 °C 30.1in /  1019.2hPa Calm   5.4mph /  8.7km/h 77% 0in /  0.0mm 0 W/m2
02:09 65.7 °F /  18.7 °C 58.3 °F /  14.6 °C 30.1in /  1019.2hPa North 1.6mph /  2.6km/h 4.5mph /  7.2km/h 77% 0in /  0.0mm 0 W/m2
02:14 65.5 °F /  18.6 °C 58.5 °F /  14.7 °C 30.1in /  1019.2hPa NNW 0.7mph /  1.1km/h 4.5mph /  7.2km/h 78% 0in /  0.0mm 0 W/m2
02:19 65.1 °F /  18.4 °C 58.1 °F /  14.5 °C 30.1in /  1019.2hPa NNW 0.7mph /  1.1km/h 4.5mph /  7.2km/h 78% 0in /  0.0mm 0 W/m2
02:24 64.9 °F /  18.3 °C 58.3 °F /  14.6 °C 30.1in /  1019.2hPa NNW 0.7mph /  1.1km/h 4.5mph /  7.2km/h 79% 0in /  0.0mm 0 W/m2
02:29 64.8 °F /  18.2 °C 58.1 °F /  14.5 °C 30.1in /  1019.2hPa Calm   3.1mph /  5.0km/h 79% 0in /  0.0mm 0 W/m2
02:34 64.2 °F /  17.9 °C 58.3 °F /  14.6 °C 30.1in /  1019.2hPa Calm   2.2mph /  3.5km/h 81% 0in /  0.0mm 0 W/m2
02:39 64 °F /  17.8 °C 58.1 °F /  14.5 °C 30.1in /  1019.2hPa Calm   2.2mph /  3.5km/h 81% 0in /  0.0mm 0 W/m2
02:44 64 °F /  17.8 °C 58.1 °F /  14.5 °C 30.1in /  1019.2hPa Calm   2.2mph /  3.5km/h 81% 0in /  0.0mm 0 W/m2
02:50 64.2 °F /  17.9 °C 58.3 °F /  14.6 °C 30.1in /  1019.2hPa Calm   3.8mph /  6.1km/h 81% 0in /  0.0mm 0 W/m2
02:55 64.2 °F /  17.9 °C 58.3 °F /  14.6 °C 30.1in /  1019.2hPa North 0.7mph /  1.1km/h 3.1mph /  5.0km/h 81% 0in /  0.0mm 0 W/m2
03:00 64.2 °F /  17.9 °C 58.3 °F /  14.6 °C 30.1in /  1019.2hPa Calm   3.1mph /  5.0km/h 81% 0in /  0.0mm 0 W/m2
03:05 64 °F /  17.8 °C 58.1 °F /  14.5 °C 30.1in /  1019.2hPa NNW 0.7mph /  1.1km/h 4.5mph /  7.2km/h 81% 0in /  0.0mm 0 W/m2
03:10 64 °F /  17.8 °C 58.1 °F /  14.5 °C 30.1in /  1018.8hPa NW 0.7mph /  1.1km/h 4.5mph /  7.2km/h 81% 0in /  0.0mm 0 W/m2
03:15 63.9 °F /  17.7 °C 57.9 °F /  14.4 °C 30.1in /  1018.8hPa NNW 0.7mph /  1.1km/h 4.5mph /  7.2km/h 81% 0in /  0.0mm 0 W/m2
03:20 63.7 °F /  17.6 °C 58.1 °F /  14.5 °C 30.1in /  1019.2hPa Calm   3.8mph /  6.1km/h 82% 0in /  0.0mm 0 W/m2
03:25 63.5 °F /  17.5 °C 57.9 °F /  14.4 °C 30.1in /  1019.2hPa North 1.6mph /  2.6km/h 3.8mph /  6.1km/h 82% 0in /  0.0mm 0 W/m2
03:30 63.5 °F /  17.5 °C 57.9 °F /  14.4 °C 30.1in /  1019.2hPa North 1.6mph /  2.6km/h 4.5mph /  7.2km/h 82% 0in /  0.0mm 0 W/m2
03:35 63.3 °F /  17.4 °C 57.7 °F /  14.3 °C 30.1in /  1018.8hPa North 1.6mph /  2.6km/h 4.5mph /  7.2km/h 82% 0in /  0.0mm 0 W/m2
03:40 63.3 °F /  17.4 °C 57.7 °F /  14.3 °C 30.1in /  1018.8hPa North 0.7mph /  1.1km/h 4.5mph /  7.2km/h 82% 0in /  0.0mm 0 W/m2
03:46 63.3 °F /  17.4 °C 57.7 °F /  14.3 °C 30.1in /  1018.8hPa Calm   4.5mph /  7.2km/h 82% 0in /  0.0mm 0 W/m2
03:51 63.1 °F /  17.3 °C 57.6 °F /  14.2 °C 30.1in /  1018.8hPa Calm   4.5mph /  7.2km/h 82% 0in /  0.0mm 0 W/m2
03:56 62.8 °F /  17.1 °C 57.2 °F /  14.0 °C 30.1in /  1018.8hPa North 0.7mph /  1.1km/h 3.1mph /  5.0km/h 82% 0in /  0.0mm 0 W/m2
04:01 62.8 °F /  17.1 °C 57.6 °F /  14.2 °C 30.1in /  1018.8hPa Calm   3.1mph /  5.0km/h 83% 0in /  0.0mm 0 W/m2
04:06 62.6 °F /  17.0 °C 57.4 °F /  14.1 °C 30.1in /  1018.8hPa North 0.7mph /  1.1km/h 2.2mph /  3.5km/h 83% 0in /  0.0mm 0 W/m2
04:11 62.2 °F /  16.8 °C 57.4 °F /  14.1 °C 30.1in /  1018.8hPa Calm   2.2mph /  3.5km/h 84% 0in /  0.0mm 0 W/m2
04:16 62.2 °F /  16.8 °C 57.7 °F /  14.3 °C 30.1in /  1018.8hPa Calm   2.2mph /  3.5km/h 85% 0in /  0.0mm 0 W/m2
04:21 62.1 °F /  16.7 °C 57.6 °F /  14.2 °C 30.1in /  1018.8hPa Calm   2.2mph /  3.5km/h 85% 0in /  0.0mm 0 W/m2
04:26 61.9 °F /  16.6 °C 57.4 °F /  14.1 °C 30.1in /  1018.8hPa Calm   2.2mph /  3.5km/h 85% 0in /  0.0mm 0 W/m2
04:36 61.5 °F /  16.4 °C 57.4 °F /  14.1 °C 30.1in /  1018.8hPa Calm   1.6mph /  2.6km/h 86% 0in /  0.0mm 0 W/m2
04:41 61.2 °F /  16.2 °C 57 °F /  13.9 °C 30.1in /  1018.8hPa NW 0.7mph /  1.1km/h 1.6mph /  2.6km/h 86% 0in /  0.0mm 0 W/m2
04:51 60.8 °F /  16.0 °C 56.8 °F /  13.8 °C 30.1in /  1018.8hPa Calm   2.2mph /  3.5km/h 87% 0in /  0.0mm 0 W/m2
04:56 60.4 °F /  15.8 °C 57.2 °F /  14.0 °C 30.1in /  1018.8hPa Calm   2.2mph /  3.5km/h 89% 0in /  0.0mm 0 W/m2
05:01 60.4 °F /  15.8 °C 57.2 °F /  14.0 °C 30.1in /  1019.2hPa Calm   0.7mph /  1.1km/h 89% 0in /  0.0mm 0 W/m2
05:06 60.1 °F /  15.6 °C 56.8 °F /  13.8 °C 30.1in /  1019.2hPa Calm   0.7mph /  1.1km/h 89% 0in /  0.0mm 0 W/m2
05:11 59.9 °F /  15.5 °C 57 °F /  13.9 °C 30.1in /  1019.2hPa Calm   1.6mph /  2.6km/h 90% 0in /  0.0mm 0 W/m2
05:16 59.9 °F /  15.5 °C 57 °F /  13.9 °C 30.1in /  1019.2hPa Calm   1.6mph /  2.6km/h 90% 0in /  0.0mm 0 W/m2
05:21 59.7 °F /  15.4 °C 57 °F /  13.9 °C 30.1in /  1019.5hPa Calm   1.6mph /  2.6km/h 91% 0in /  0.0mm 0 W/m2
05:26 59.5 °F /  15.3 °C 56.8 °F /  13.8 °C 30.1in /  1019.5hPa Calm   1.6mph /  2.6km/h 91% 0in /  0.0mm 0 W/m2
05:41 59.4 °F /  15.2 °C 57.4 °F /  14.1 °C 30.1in /  1019.5hPa Calm   2.2mph /  3.5km/h 93% 0in /  0.0mm 2 W/m2
05:46 59.4 °F /  15.2 °C 57.4 °F /  14.1 °C 30.1in /  1019.5hPa Calm   2.2mph /  3.5km/h 93% 0in /  0.0mm 4 W/m2
05:51 59.4 °F /  15.2 °C 57.4 °F /  14.1 °C 30.1in /  1019.5hPa Calm   1.6mph /  2.6km/h 93% 0in /  0.0mm 7 W/m2
05:56 59.4 °F /  15.2 °C 57.4 °F /  14.1 °C 30.1in /  1019.5hPa Calm   1.6mph /  2.6km/h 93% 0in /  0.0mm 11 W/m2
06:01 59.4 °F /  15.2 °C 57.4 °F /  14.1 °C 30.1in /  1019.5hPa Calm   0.7mph /  1.1km/h 93% 0in /  0.0mm 16 W/m2
06:06 59.5 °F /  15.3 °C 57.6 °F /  14.2 °C 30.1in /  1019.9hPa Calm   1.6mph /  2.6km/h 93% 0in /  0.0mm 19 W/m2
06:11 59.5 °F /  15.3 °C 57.6 °F /  14.2 °C 30.1in /  1019.5hPa Calm   2.2mph /  3.5km/h 93% 0in /  0.0mm 23 W/m2
06:21 60.3 °F /  15.7 °C 58.3 °F /  14.6 °C 30.1in /  1019.9hPa Calm   2.2mph /  3.5km/h 93% 0in /  0.0mm 37 W/m2
06:26 60.8 °F /  16.0 °C 58.3 °F /  14.6 °C 30.1in /  1019.9hPa Calm   2.2mph /  3.5km/h 91% 0in /  0.0mm 61 W/m2
06:31 61.7 °F /  16.5 °C 58.8 °F /  14.9 °C 30.1in /  1019.9hPa NNW 0.7mph /  1.1km/h 2.2mph /  3.5km/h 90% 0in /  0.0mm 70 W/m2
06:36 62.1 °F /  16.7 °C 58.5 °F /  14.7 °C 30.1in /  1019.9hPa NNW 1.6mph /  2.6km/h 3.1mph /  5.0km/h 88% 0in /  0.0mm 78 W/m2
06:41 63 °F /  17.2 °C 58.5 °F /  14.7 °C 30.1in /  1019.9hPa NW 1.6mph /  2.6km/h 3.1mph /  5.0km/h 85% 0in /  0.0mm 86 W/m2
06:46 63.5 °F /  17.5 °C 58.6 °F /  14.8 °C 30.1in /  1019.9hPa NW 0.7mph /  1.1km/h 3.1mph /  5.0km/h 84% 0in /  0.0mm 94 W/m2
06:56 64.6 °F /  18.1 °C 59.4 °F /  15.2 °C 30.1in /  1019.9hPa NNW 0.7mph /  1.1km/h 3.8mph /  6.1km/h 83% 0in /  0.0mm 113 W/m2
07:01 65.3 °F /  18.5 °C 59.4 °F /  15.2 °C 30.1in /  1020.2hPa NW 3.1mph /  5.0km/h 4.5mph /  7.2km/h 81% 0in /  0.0mm 123 W/m2
07:06 65.8 °F /  18.8 °C 59.5 °F /  15.3 °C 30.1in /  1020.2hPa NW 1.6mph /  2.6km/h 4.5mph /  7.2km/h 80% 0in /  0.0mm 133 W/m2
07:11 66.4 °F /  19.1 °C 59 °F /  15.0 °C 30.1in /  1020.2hPa NNW 2.2mph /  3.5km/h 4.5mph /  7.2km/h 77% 0in /  0.0mm 144 W/m2
07:21 67.8 °F /  19.9 °C 59.5 °F /  15.3 °C 30.1in /  1020.2hPa NNW 2.2mph /  3.5km/h 5.4mph /  8.7km/h 75% 0in /  0.0mm 166 W/m2
07:26 68.4 °F /  20.2 °C 59.4 °F /  15.2 °C 30.1in /  1020.2hPa NNW 4.5mph /  7.2km/h 6.9mph /  11.1km/h 73% 0in /  0.0mm 177 W/m2
07:36 69.1 °F /  20.6 °C 59.7 °F /  15.4 °C 30.1in /  1020.5hPa NNW 1.6mph /  2.6km/h 9.2mph /  14.8km/h 72% 0in /  0.0mm 201 W/m2
07:41 70 °F /  21.1 °C 59.4 °F /  15.2 °C 30.1in /  1020.5hPa North 5.4mph /  8.7km/h 8.3mph /  13.4km/h 69% 0in /  0.0mm 215 W/m2
07:51 70.5 °F /  21.4 °C 59.2 °F /  15.1 °C 30.1in /  1020.5hPa North 3.1mph /  5.0km/h 9.8mph /  15.8km/h 67% 0in /  0.0mm 238 W/m2
07:56 70.9 °F /  21.6 °C 59.4 °F /  15.2 °C 30.1in /  1020.5hPa NNE 2.2mph /  3.5km/h 9.8mph /  15.8km/h 67% 0in /  0.0mm 251 W/m2
08:06 71.4 °F /  21.9 °C 59.2 °F /  15.1 °C 30.1in /  1020.5hPa North 2.2mph /  3.5km/h 9.2mph /  14.8km/h 65% 0in /  0.0mm 277 W/m2
08:11 72.3 °F /  22.4 °C 59.5 °F /  15.3 °C 30.1in /  1020.5hPa North 0.7mph /  1.1km/h 9.2mph /  14.8km/h 64% 0in /  0.0mm 289 W/m2
08:16 73.2 °F /  22.9 °C 59.5 °F /  15.3 °C 30.2in /  1020.9hPa North 0.7mph /  1.1km/h 9.2mph /  14.8km/h 62% 0in /  0.0mm 306 W/m2
08:21 73.4 °F /  23.0 °C 59.5 °F /  15.3 °C 30.2in /  1020.9hPa North 3.8mph /  6.1km/h 9.2mph /  14.8km/h 62% 0in /  0.0mm 319 W/m2
08:26 74.3 °F /  23.5 °C 59.5 °F /  15.3 °C 30.2in /  1020.9hPa NNE 1.6mph /  2.6km/h 7.6mph /  12.2km/h 60% 0in /  0.0mm 336 W/m2
08:30 74.7 °F /  23.7 °C 59.9 °F /  15.5 °C 30.2in /  1020.9hPa NE 3.8mph /  6.1km/h 7.6mph /  12.2km/h 60% 0in /  0.0mm 342 W/m2
08:35 74.1 °F /  23.4 °C 58.5 °F /  14.7 °C 30.2in /  1020.9hPa NNE 3.1mph /  5.0km/h 8.3mph /  13.4km/h 58% 0in /  0.0mm 357 W/m2
08:40 74.3 °F /  23.5 °C 59.5 °F /  15.3 °C 30.2in /  1020.9hPa NNE 3.1mph /  5.0km/h 8.3mph /  13.4km/h 60% 0in /  0.0mm 372 W/m2
08:51 74.5 °F /  23.6 °C 58.8 °F /  14.9 °C 30.2in /  1020.9hPa NNW 5.4mph /  8.7km/h 8.3mph /  13.4km/h 58% 0in /  0.0mm 402 W/m2
08:56 74.7 °F /  23.7 °C 59.4 °F /  15.2 °C 30.2in /  1020.9hPa NNE 2.2mph /  3.5km/h 8.3mph /  13.4km/h 59% 0in /  0.0mm 421 W/m2
09:01 75.7 °F /  24.3 °C 58.5 °F /  14.7 °C 30.1in /  1020.5hPa NE 3.1mph /  5.0km/h 8.3mph /  13.4km/h 55% 0in /  0.0mm 440 W/m2
09:11 76.6 °F /  24.8 °C 59.4 °F /  15.2 °C 30.1in /  1020.5hPa Calm   7.6mph /  12.2km/h 55% 0in /  0.0mm 472 W/m2
09:16 77.2 °F /  25.1 °C 59.4 °F /  15.2 °C 30.1in /  1020.5hPa North 3.1mph /  5.0km/h 6mph /  9.7km/h 54% 0in /  0.0mm 488 W/m2
09:21 76.1 °F /  24.5 °C 58.8 °F /  14.9 °C 30.1in /  1020.2hPa NNW 3.1mph /  5.0km/h 6.9mph /  11.1km/h 55% 0in /  0.0mm 505 W/m2
09:26 76.6 °F /  24.8 °C 58.8 °F /  14.9 °C 30.1in /  1020.5hPa Calm   8.3mph /  13.4km/h 54% 0in /  0.0mm 519 W/m2
09:31 77.4 °F /  25.2 °C 57.9 °F /  14.4 °C 30.1in /  1020.2hPa NNE 0.7mph /  1.1km/h 8.3mph /  13.4km/h 51% 0in /  0.0mm 543 W/m2
09:41 77 °F /  25.0 °C 57.6 °F /  14.2 °C 30.1in /  1020.2hPa North 2.2mph /  3.5km/h 9.2mph /  14.8km/h 51% 0in /  0.0mm 580 W/m2
09:46 77.4 °F /  25.2 °C 58.8 °F /  14.9 °C 30.1in /  1020.2hPa NNW 2.2mph /  3.5km/h 6.9mph /  11.1km/h 53% 0in /  0.0mm 597 W/m2
09:51 78.3 °F /  25.7 °C 59.7 °F /  15.4 °C 30.1in /  1020.2hPa North 5.4mph /  8.7km/h 6.9mph /  11.1km/h 53% 0in /  0.0mm 633 W/m2
09:56 78.3 °F /  25.7 °C 59.2 °F /  15.1 °C 30.1in /  1020.2hPa Calm   6.9mph /  11.1km/h 52% 0in /  0.0mm 652 W/m2
10:01 79.7 °F /  26.5 °C 57.7 °F /  14.3 °C 30.1in /  1019.9hPa NNW 3.1mph /  5.0km/h 7.6mph /  12.2km/h 47% 0in /  0.0mm 679 W/m2
10:16 78.4 °F /  25.8 °C 55.9 °F /  13.3 °C 30.1in /  1019.9hPa NNW 6.9mph /  11.1km/h 13mph /  20.9km/h 46% 0in /  0.0mm 732 W/m2
10:19 78.3 °F /  25.7 °C 55.8 °F /  13.2 °C 30.1in /  1020.2hPa NNW 3.1mph /  5.0km/h 13mph /  20.9km/h 46% 0in /  0.0mm 738 W/m2
10:24 78.4 °F /  25.8 °C 55.9 °F /  13.3 °C 30.1in /  1019.9hPa NNW 6mph /  9.7km/h 12.1mph /  19.5km/h 46% 0in /  0.0mm 763 W/m2
10:29 78.1 °F /  25.6 °C 56.1 °F /  13.4 °C 30.1in /  1019.9hPa NNW 7.6mph /  12.2km/h 12.1mph /  19.5km/h 47% 0in /  0.0mm 763 W/m2
10:34 79.2 °F /  26.2 °C 56.7 °F /  13.7 °C 30.1in /  1019.9hPa North 3.8mph /  6.1km/h 12.1mph /  19.5km/h 46% 0in /  0.0mm 810 W/m2
10:40 80.8 °F /  27.1 °C 57.6 °F /  14.2 °C 30.1in /  1019.9hPa NNE 6.9mph /  11.1km/h 10.7mph /  17.2km/h 45% 0in /  0.0mm 601 W/m2
10:43 80.8 °F /  27.1 °C 56.8 °F /  13.8 °C 30.1in /  1019.9hPa NNE 3.8mph /  6.1km/h 10.7mph /  17.2km/h 44% 0in /  0.0mm 595 W/m2
10:48 80.2 °F /  26.8 °C 57 °F /  13.9 °C 30.1in /  1019.5hPa NNE 4.5mph /  7.2km/h 9.8mph /  15.8km/h 45% 0in /  0.0mm 403 W/m2
10:53 79.7 °F /  26.5 °C 56.5 °F /  13.6 °C 30.1in /  1019.5hPa NE 5.4mph /  8.7km/h 9.2mph /  14.8km/h 45% 0in /  0.0mm 920 W/m2
11:03 80.1 °F /  26.7 °C 56.8 °F /  13.8 °C 30.1in /  1019.5hPa NE 4.5mph /  7.2km/h 9.8mph /  15.8km/h 45% 0in /  0.0mm 832 W/m2
11:08 80.2 °F /  26.8 °C 56.5 °F /  13.6 °C 30.1in /  1019.5hPa NE 6mph /  9.7km/h 8.3mph /  13.4km/h 44% 0in /  0.0mm 505 W/m2
11:13 79.7 °F /  26.5 °C 56.5 °F /  13.6 °C 30.1in /  1019.5hPa NE 2.2mph /  3.5km/h 8.3mph /  13.4km/h 45% 0in /  0.0mm 392 W/m2
11:18 79.3 °F /  26.3 °C 55.6 °F /  13.1 °C 30.1in /  1019.5hPa ENE 5.4mph /  8.7km/h 8.3mph /  13.4km/h 44% 0in /  0.0mm 348 W/m2
11:23 78.6 °F /  25.9 °C 56.7 °F /  13.7 °C 30.1in /  1019.5hPa ENE 0.7mph /  1.1km/h 9.8mph /  15.8km/h 47% 0in /  0.0mm 349 W/m2
11:28 79.5 °F /  26.4 °C 56.5 °F /  13.6 °C 30.1in /  1019.2hPa NE 3.8mph /  6.1km/h 9.8mph /  15.8km/h 45% 0in /  0.0mm 377 W/m2
11:33 78.6 °F /  25.9 °C 56.1 °F /  13.4 °C 30.1in /  1019.2hPa NNE 4.5mph /  7.2km/h 9.8mph /  15.8km/h 46% 0in /  0.0mm 333 W/m2
11:38 79 °F /  26.1 °C 56.5 °F /  13.6 °C 30.1in /  1019.2hPa North 4.5mph /  7.2km/h 9.8mph /  15.8km/h 46% 0in /  0.0mm 333 W/m2
11:43 78.8 °F /  26.0 °C 56.8 °F /  13.8 °C 30.1in /  1019.2hPa North 4.5mph /  7.2km/h 8.3mph /  13.4km/h 47% 0in /  0.0mm 905 W/m2
11:48 79.3 °F /  26.3 °C 56.8 °F /  13.8 °C 30.1in /  1018.8hPa Calm   9.2mph /  14.8km/h 46% 0in /  0.0mm 904 W/m2
11:53 80.8 °F /  27.1 °C 56.8 °F /  13.8 °C 30.1in /  1019.2hPa NE 1.6mph /  2.6km/h 9.2mph /  14.8km/h 44% 0in /  0.0mm 948 W/m2
11:58 81.1 °F /  27.3 °C 57.2 °F /  14.0 °C 30.1in /  1018.8hPa North 0.7mph /  1.1km/h 7.6mph /  12.2km/h 44% 0in /  0.0mm 998 W/m2
12:03 82 °F /  27.8 °C 57.4 °F /  14.1 °C 30.1in /  1018.8hPa NNE 0.7mph /  1.1km/h 7.6mph /  12.2km/h 43% 0in /  0.0mm 609 W/m2
12:08 80.8 °F /  27.1 °C 56.8 °F /  13.8 °C 30.1in /  1018.8hPa NNE 2.2mph /  3.5km/h 9.2mph /  14.8km/h 44% 0in /  0.0mm 418 W/m2
12:13 80.2 °F /  26.8 °C 57.6 °F /  14.2 °C 30.1in /  1018.8hPa NNE 3.8mph /  6.1km/h 9.2mph /  14.8km/h 46% 0in /  0.0mm 367 W/m2
12:18 80.6 °F /  27.0 °C 57.4 °F /  14.1 °C 30.1in /  1018.8hPa NE 0.7mph /  1.1km/h 8.3mph /  13.4km/h 45% 0in /  0.0mm 569 W/m2
12:28 82 °F /  27.8 °C 57.9 °F /  14.4 °C 30.1in /  1018.5hPa NE 3.1mph /  5.0km/h 10.7mph /  17.2km/h 44% 0in /  0.0mm 889 W/m2
12:33 82.4 °F /  28.0 °C 59.5 °F /  15.3 °C 30.1in /  1018.5hPa NNE 5.4mph /  8.7km/h 10.7mph /  17.2km/h 46% 0in /  0.0mm 930 W/m2
12:38 83.5 °F /  28.6 °C 60.6 °F /  15.9 °C 30.1in /  1018.5hPa NE 0.7mph /  1.1km/h 9.8mph /  15.8km/h 46% 0in /  0.0mm 462 W/m2
12:53 80.4 °F /  26.9 °C 60.1 °F /  15.6 °C 30.1in /  1018.5hPa Calm   10.7mph /  17.2km/h 50% 0in /  0.0mm 1027 W/m2
12:58 79.2 °F /  26.2 °C 60.1 °F /  15.6 °C 30.1in /  1018.5hPa Calm   6mph /  9.7km/h 52% 0in /  0.0mm 339 W/m2
13:03 79.7 °F /  26.5 °C 60.6 °F /  15.9 °C 30.1in /  1018.5hPa Calm   6mph /  9.7km/h 52% 0in /  0.0mm 329 W/m2
13:08 80.6 °F /  27.0 °C 59.7 °F /  15.4 °C 30.1in /  1018.2hPa Calm   3.1mph /  5.0km/h 49% 0in /  0.0mm 344 W/m2
13:13 80.6 °F /  27.0 °C 59.7 °F /  15.4 °C 30.1in /  1018.2hPa Calm   3.1mph /  5.0km/h 49% 0in /  0.0mm 363 W/m2
13:18 80.8 °F /  27.1 °C 56.1 °F /  13.4 °C 30.1in /  1018.2hPa NNW 7.6mph /  12.2km/h 11.4mph /  18.3km/h 43% 0in /  0.0mm 338 W/m2
13:23 80.8 °F /  27.1 °C 56.1 °F /  13.4 °C 30.1in /  1018.2hPa North 9.2mph /  14.8km/h 13mph /  20.9km/h 43% 0in /  0.0mm 332 W/m2
13:28 81 °F /  27.2 °C 56.5 °F /  13.6 °C 30.1in /  1018.2hPa North 3.8mph /  6.1km/h 13mph /  20.9km/h 43% 0in /  0.0mm 389 W/m2
13:33 81.3 °F /  27.4 °C 56.1 °F /  13.4 °C 30.1in /  1018.2hPa NNW 7.6mph /  12.2km/h 15.2mph /  24.5km/h 42% 0in /  0.0mm 421 W/m2
13:38 81.5 °F /  27.5 °C 56.8 °F /  13.8 °C 30.1in /  1018.2hPa NNW 2.2mph /  3.5km/h 15.2mph /  24.5km/h 43% 0in /  0.0mm 487 W/m2
13:43 82.6 °F /  28.1 °C 58.5 °F /  14.7 °C 30.1in /  1018.2hPa North 9.2mph /  14.8km/h 14.5mph /  23.3km/h 44% 0in /  0.0mm 485 W/m2
13:48 82 °F /  27.8 °C 56.7 °F /  13.7 °C 30.1in /  1018.2hPa North 7.6mph /  12.2km/h 14.5mph /  23.3km/h 42% 0in /  0.0mm 397 W/m2
13:53 81 °F /  27.2 °C 55.8 °F /  13.2 °C 30.1in /  1018.2hPa NNW 8.3mph /  13.4km/h 15.9mph /  25.6km/h 42% 0in /  0.0mm 311 W/m2
13:58 81 °F /  27.2 °C 56.5 °F /  13.6 °C 30.1in /  1018.2hPa NNW 7.6mph /  12.2km/h 15.9mph /  25.6km/h 43% 0in /  0.0mm 357 W/m2
14:03 81.5 °F /  27.5 °C 56.8 °F /  13.8 °C 30.1in /  1018.2hPa NNW 8.3mph /  13.4km/h 14.5mph /  23.3km/h 43% 0in /  0.0mm 430 W/m2
14:08 81.7 °F /  27.6 °C 57 °F /  13.9 °C 30.1in /  1018.2hPa NNW 7.6mph /  12.2km/h 14.5mph /  23.3km/h 43% 0in /  0.0mm 522 W/m2
14:29 82.6 °F /  28.1 °C 60.4 °F /  15.8 °C 30.1in /  1017.8hPa North 0.7mph /  1.1km/h 13.6mph /  21.9km/h 47% 0in /  0.0mm 880 W/m2
14:34 83.3 °F /  28.5 °C 61 °F /  16.1 °C 30.1in /  1017.8hPa North 6.9mph /  11.1km/h 11.4mph /  18.3km/h 47% 0in /  0.0mm 814 W/m2
14:39 83.1 °F /  28.4 °C 59.5 °F /  15.3 °C 30.1in /  1018.2hPa North 10.7mph /  17.2km/h 15.2mph /  24.5km/h 45% 0in /  0.0mm 844 W/m2
14:44 83.8 °F /  28.8 °C 58.3 °F /  14.6 °C 30.1in /  1017.8hPa North 10.7mph /  17.2km/h 17.4mph /  28.0km/h 42% 0in /  0.0mm 778 W/m2
14:49 83.7 °F /  28.7 °C 57.6 °F /  14.2 °C 30.1in /  1017.5hPa North 8.3mph /  13.4km/h 17.4mph /  28.0km/h 41% 0in /  0.0mm 754 W/m2
14:54 83.3 °F /  28.5 °C 57.2 °F /  14.0 °C 30.1in /  1017.8hPa North 9.8mph /  15.8km/h 17.4mph /  28.0km/h 41% 0in /  0.0mm 749 W/m2
14:59 83.3 °F /  28.5 °C 57.9 °F /  14.4 °C 30.1in /  1017.8hPa North 8.3mph /  13.4km/h 17.4mph /  28.0km/h 42% 0in /  0.0mm 750 W/m2
15:04 83.3 °F /  28.5 °C 57.9 °F /  14.4 °C 30.1in /  1017.8hPa NNW 8.3mph /  13.4km/h 17.4mph /  28.0km/h 42% 0in /  0.0mm 732 W/m2
15:09 84 °F /  28.9 °C 58.5 °F /  14.7 °C 30.1in /  1017.8hPa NNW 6mph /  9.7km/h 17.4mph /  28.0km/h 42% 0in /  0.0mm 782 W/m2
15:14 83.7 °F /  28.7 °C 58.8 °F /  14.9 °C 30.1in /  1017.5hPa North 3.8mph /  6.1km/h 13mph /  20.9km/h 43% 0in /  0.0mm 732 W/m2
15:19 83.3 °F /  28.5 °C 57.9 °F /  14.4 °C 30.1in /  1017.5hPa North 10.7mph /  17.2km/h 16.8mph /  27.0km/h 42% 0in /  0.0mm 699 W/m2
15:24 83.5 °F /  28.6 °C 57.9 °F /  14.4 °C 30.1in /  1017.5hPa North 8.3mph /  13.4km/h 16.8mph /  27.0km/h 42% 0in /  0.0mm 687 W/m2
15:29 83.3 °F /  28.5 °C 58.5 °F /  14.7 °C 30.1in /  1017.5hPa North 5.4mph /  8.7km/h 15.9mph /  25.6km/h 43% 0in /  0.0mm 670 W/m2
15:30 83.3 °F /  28.5 °C 58.5 °F /  14.7 °C 30.1in /  1017.5hPa North 8.3mph /  13.4km/h 18.3mph /  29.4km/h 43% 0in /  0.0mm 458 W/m2
15:35 83.1 °F /  28.4 °C 59 °F /  15.0 °C 30in /  1017.2hPa NNW 12.1mph /  19.5km/h 18.3mph /  29.4km/h 44% 0in /  0.0mm 670 W/m2
15:40 82.9 °F /  28.3 °C 58.3 °F /  14.6 °C 30.1in /  1017.5hPa NNW 12.1mph /  19.5km/h 18.3mph /  29.4km/h 43% 0in /  0.0mm 643 W/m2
15:46 82.8 °F /  28.2 °C 57.9 °F /  14.4 °C 30in /  1017.2hPa NNW 5.4mph /  8.7km/h 16.8mph /  27.0km/h 43% 0in /  0.0mm 634 W/m2
15:51 82.9 °F /  28.3 °C 58.8 °F /  14.9 °C 30.1in /  1017.5hPa NNW 13.6mph /  21.9km/h 20.6mph /  33.1km/h 44% 0in /  0.0mm 620 W/m2
15:52 82.9 °F /  28.3 °C 58.8 °F /  14.9 °C 30in /  1017.2hPa NNW 12.1mph /  19.5km/h 20.6mph /  33.1km/h 44% 0in /  0.0mm 619 W/m2
15:57 82.8 °F /  28.2 °C 58.6 °F /  14.8 °C 30.1in /  1017.5hPa NNW 9.8mph /  15.8km/h 20.6mph /  33.1km/h 44% 0in /  0.0mm 609 W/m2
16:02 83.3 °F /  28.5 °C 59.2 °F /  15.1 °C 30.1in /  1017.5hPa NNW 13mph /  20.9km/h 18.3mph /  29.4km/h 44% 0in /  0.0mm 606 W/m2
16:07 82.9 °F /  28.3 °C 57.6 °F /  14.2 °C 30in /  1017.2hPa NNW 6.9mph /  11.1km/h 18.3mph /  29.4km/h 42% 0in /  0.0mm 617 W/m2
16:17 84 °F /  28.9 °C 57 °F /  13.9 °C 30in /  1017.2hPa NW 9.8mph /  15.8km/h 19mph /  30.6km/h 40% 0in /  0.0mm 646 W/m2
16:22 83.7 °F /  28.7 °C 57.6 °F /  14.2 °C 30in /  1017.2hPa NW 8.3mph /  13.4km/h 19mph /  30.6km/h 41% 0in /  0.0mm 621 W/m2
16:25 83.7 °F /  28.7 °C 55.4 °F /  13.0 °C 30in /  1017.2hPa NW 8.3mph /  13.4km/h 19.7mph /  31.7km/h 38% 0in /  0.0mm 300 W/m2
16:31 83.7 °F /  28.7 °C 56.1 °F /  13.4 °C 30in /  1017.2hPa NNW 9.2mph /  14.8km/h 19.7mph /  31.7km/h 39% 0in /  0.0mm 538 W/m2
16:34 83.5 °F /  28.6 °C 56.7 °F /  13.7 °C 30in /  1016.8hPa NNW 6mph /  9.7km/h 19.7mph /  31.7km/h 40% 0in /  0.0mm 534 W/m2
16:39 83.7 °F /  28.7 °C 55.4 °F /  13.0 °C 30in /  1017.2hPa NNW 11.4mph /  18.3km/h 18.3mph /  29.4km/h 38% 0in /  0.0mm 538 W/m2
16:44 83.5 °F /  28.6 °C 55.9 °F /  13.3 °C 30in /  1016.8hPa NNW 6.9mph /  11.1km/h 18.3mph /  29.4km/h 39% 0in /  0.0mm 549 W/m2
16:49 83.3 °F /  28.5 °C 56.5 °F /  13.6 °C 30in /  1017.2hPa North 6.9mph /  11.1km/h 18.3mph /  29.4km/h 40% 0in /  0.0mm 559 W/m2
16:54 83.3 °F /  28.5 °C 57.9 °F /  14.4 °C 30in /  1017.2hPa NNW 9.2mph /  14.8km/h 15.2mph /  24.5km/h 42% 0in /  0.0mm 547 W/m2
16:59 83.7 °F /  28.7 °C 60.1 °F /  15.6 °C 30in /  1016.8hPa North 6.9mph /  11.1km/h 13.6mph /  21.9km/h 45% 0in /  0.0mm 324 W/m2
17:04 82.9 °F /  28.3 °C 59.5 °F /  15.3 °C 30in /  1017.2hPa North 7.6mph /  12.2km/h 14.5mph /  23.3km/h 45% 0in /  0.0mm 396 W/m2
17:09 82.9 °F /  28.3 °C 59.5 °F /  15.3 °C 30in /  1016.8hPa North 9.8mph /  15.8km/h 16.8mph /  27.0km/h 45% 0in /  0.0mm 439 W/m2
17:14 82.2 °F /  27.9 °C 58.3 °F /  14.6 °C 30in /  1016.8hPa North 3.1mph /  5.0km/h 16.8mph /  27.0km/h 44% 0in /  0.0mm 180 W/m2
17:18 81.1 °F /  27.3 °C 57.2 °F /  14.0 °C 30in /  1016.8hPa North 6.9mph /  11.1km/h 16.8mph /  27.0km/h 44% 0in /  0.0mm 342 W/m2
17:23 80.6 °F /  27.0 °C 57.4 °F /  14.1 °C 30in /  1016.8hPa North 8.3mph /  13.4km/h 14.5mph /  23.3km/h 45% 0in /  0.0mm 120 W/m2
17:28 80.2 °F /  26.8 °C 57.6 °F /  14.2 °C 30in /  1016.8hPa North 3.8mph /  6.1km/h 13.6mph /  21.9km/h 46% 0in /  0.0mm 210 W/m2
17:33 81.3 °F /  27.4 °C 57.4 °F /  14.1 °C 30in /  1016.8hPa North 7.6mph /  12.2km/h 14.5mph /  23.3km/h 44% 0in /  0.0mm 131 W/m2
17:38 81.9 °F /  27.7 °C 57.2 °F /  14.0 °C 30in /  1016.5hPa North 6mph /  9.7km/h 14.5mph /  23.3km/h 43% 0in /  0.0mm 392 W/m2
17:43 83.1 °F /  28.4 °C 59 °F /  15.0 °C 30in /  1016.5hPa North 9.2mph /  14.8km/h 13mph /  20.9km/h 44% 0in /  0.0mm 366 W/m2
17:48 83.1 °F /  28.4 °C 59.5 °F /  15.3 °C 30in /  1016.1hPa North 3.1mph /  5.0km/h 13mph /  20.9km/h 45% 0in /  0.0mm 357 W/m2
17:53 83.5 °F /  28.6 °C 58.6 °F /  14.8 °C 30in /  1016.1hPa North 4.5mph /  7.2km/h 12.1mph /  19.5km/h 43% 0in /  0.0mm 341 W/m2
17:58 84 °F /  28.9 °C 59.7 °F /  15.4 °C 30in /  1016.5hPa NNE 3.1mph /  5.0km/h 11.4mph /  18.3km/h 44% 0in /  0.0mm 318 W/m2
18:03 84.2 °F /  29.0 °C 58.6 °F /  14.8 °C 30in /  1016.5hPa North 3.8mph /  6.1km/h 9.8mph /  15.8km/h 42% 0in /  0.0mm 300 W/m2
18:08 83.7 °F /  28.7 °C 58.8 °F /  14.9 °C 30in /  1016.1hPa North 7.6mph /  12.2km/h 12.1mph /  19.5km/h 43% 0in /  0.0mm 283 W/m2
18:18 82 °F /  27.8 °C 56.7 °F /  13.7 °C 30in /  1016.1hPa NNW 9.2mph /  14.8km/h 14.5mph /  23.3km/h 42% 0in /  0.0mm 256 W/m2
18:23 82.2 °F /  27.9 °C 56.8 °F /  13.8 °C 30in /  1016.1hPa NNW 4.5mph /  7.2km/h 13.6mph /  21.9km/h 42% 0in /  0.0mm 248 W/m2
18:28 82.8 °F /  28.2 °C 59.4 °F /  15.2 °C 30in /  1016.5hPa North 5.4mph /  8.7km/h 13mph /  20.9km/h 45% 0in /  0.0mm 237 W/m2
18:33 81.9 °F /  27.7 °C 56.7 °F /  13.7 °C 30in /  1016.5hPa NNE 5.4mph /  8.7km/h 13.6mph /  21.9km/h 42% 0in /  0.0mm 224 W/m2
18:38 82 °F /  27.8 °C 57.4 °F /  14.1 °C 30in /  1016.5hPa North 4.5mph /  7.2km/h 13.6mph /  21.9km/h 43% 0in /  0.0mm 213 W/m2
18:43 81.9 °F /  27.7 °C 57.2 °F /  14.0 °C 30in /  1016.5hPa NNE 6mph /  9.7km/h 12.1mph /  19.5km/h 43% 0in /  0.0mm 201 W/m2
18:50 81 °F /  27.2 °C 57 °F /  13.9 °C 30in /  1016.5hPa NNE 2.2mph /  3.5km/h 15.9mph /  25.6km/h 44% 0in /  0.0mm 189 W/m2
18:55 81 °F /  27.2 °C 57 °F /  13.9 °C 30in /  1016.5hPa NNE 4.5mph /  7.2km/h 15.9mph /  25.6km/h 44% 0in /  0.0mm 176 W/m2
19:00 80.8 °F /  27.1 °C 56.8 °F /  13.8 °C 30in /  1016.8hPa North 5.4mph /  8.7km/h 14.5mph /  23.3km/h 44% 0in /  0.0mm 176 W/m2
19:05 80.4 °F /  26.9 °C 57.2 °F /  14.0 °C 30in /  1016.8hPa North 6.9mph /  11.1km/h 12.1mph /  19.5km/h 45% 0in /  0.0mm 165 W/m2
19:10 80.1 °F /  26.7 °C 57.6 °F /  14.2 °C 30in /  1016.5hPa North 6mph /  9.7km/h 12.1mph /  19.5km/h 46% 0in /  0.0mm 152 W/m2
19:15 79.9 °F /  26.6 °C 57.4 °F /  14.1 °C 30in /  1016.8hPa NNW 6.9mph /  11.1km/h 12.1mph /  19.5km/h 46% 0in /  0.0mm 140 W/m2
19:20 79.3 °F /  26.3 °C 57.4 °F /  14.1 °C 30in /  1016.8hPa North 3.1mph /  5.0km/h 13mph /  20.9km/h 47% 0in /  0.0mm 123 W/m2
19:31 77.9 °F /  25.5 °C 57.2 °F /  14.0 °C 30in /  1016.8hPa North 7.6mph /  12.2km/h 16.8mph /  27.0km/h 49% 0in /  0.0mm 91 W/m2
19:36 77.7 °F /  25.4 °C 57.6 °F /  14.2 °C 30in /  1016.8hPa North 3.1mph /  5.0km/h 13.6mph /  21.9km/h 50% 0in /  0.0mm 70 W/m2
19:47 76.5 °F /  24.7 °C 58.1 °F /  14.5 °C 30in /  1016.8hPa NNW 6mph /  9.7km/h 15.9mph /  25.6km/h 53% 0in /  0.0mm 50 W/m2
19:52 76.5 °F /  24.7 °C 58.1 °F /  14.5 °C 30in /  1017.2hPa NNW 3.1mph /  5.0km/h 15.9mph /  25.6km/h 53% 0in /  0.0mm 53 W/m2
19:57 76.5 °F /  24.7 °C 58.6 °F /  14.8 °C 30in /  1017.2hPa NNW 2.2mph /  3.5km/h 12.1mph /  19.5km/h 54% 0in /  0.0mm 25 W/m2
20:02 75.9 °F /  24.4 °C 58.1 °F /  14.5 °C 30in /  1017.2hPa NNW 5.4mph /  8.7km/h 11.4mph /  18.3km/h 54% 0in /  0.0mm 32 W/m2
20:07 75.6 °F /  24.2 °C 57.7 °F /  14.3 °C 30in /  1017.2hPa NNW 3.1mph /  5.0km/h 13mph /  20.9km/h 54% 0in /  0.0mm 19 W/m2
20:12 75 °F /  23.9 °C 58.3 °F /  14.6 °C 30in /  1017.2hPa North 1.6mph /  2.6km/h 13mph /  20.9km/h 56% 0in /  0.0mm 13 W/m2
20:18 74.1 °F /  23.4 °C 57.9 °F /  14.4 °C 30in /  1017.2hPa NNE 3.1mph /  5.0km/h 8.3mph /  13.4km/h 57% 0in /  0.0mm 8 W/m2
20:23 73.9 °F /  23.3 °C 57.7 °F /  14.3 °C 30in /  1017.2hPa NNE 3.8mph /  6.1km/h 15.9mph /  25.6km/h 57% 0in /  0.0mm 4 W/m2
20:28 73.6 °F /  23.1 °C 57.9 °F /  14.4 °C 30in /  1017.2hPa North 3.1mph /  5.0km/h 15.9mph /  25.6km/h 58% 0in /  0.0mm 1 W/m2
20:33 73.4 °F /  23.0 °C 57.7 °F /  14.3 °C 30.1in /  1017.5hPa NNW 3.8mph /  6.1km/h 10.7mph /  17.2km/h 58% 0in /  0.0mm 0 W/m2
20:48 72.3 °F /  22.4 °C 58.1 °F /  14.5 °C 30.1in /  1017.5hPa NNE 3.8mph /  6.1km/h 10.7mph /  17.2km/h 61% 0in /  0.0mm 0 W/m2
20:53 72.1 °F /  22.3 °C 57.9 °F /  14.4 °C 30.1in /  1017.5hPa North 4.5mph /  7.2km/h 11.4mph /  18.3km/h 61% 0in /  0.0mm 0 W/m2
20:58 71.8 °F /  22.1 °C 57.6 °F /  14.2 °C 30.1in /  1017.5hPa North 2.2mph /  3.5km/h 11.4mph /  18.3km/h 61% 0in /  0.0mm 0 W/m2
21:03 71.6 °F /  22.0 °C 57.6 °F /  14.2 °C 30.1in /  1017.5hPa North 3.8mph /  6.1km/h 9.2mph /  14.8km/h 61% 0in /  0.0mm 0 W/m2
21:08 71.4 °F /  21.9 °C 58.3 °F /  14.6 °C 30.1in /  1017.5hPa North 0.7mph /  1.1km/h 8.3mph /  13.4km/h 63% 0in /  0.0mm 0 W/m2
21:13 71.4 °F /  21.9 °C 58.3 °F /  14.6 °C 30.1in /  1017.8hPa North 3.1mph /  5.0km/h 10.7mph /  17.2km/h 63% 0in /  0.0mm 0 W/m2
21:18 71.2 °F /  21.8 °C 57.9 °F /  14.4 °C 30.1in /  1017.8hPa NNE 1.6mph /  2.6km/h 10.7mph /  17.2km/h 63% 0in /  0.0mm 0 W/m2
21:23 71.2 °F /  21.8 °C 57.9 °F /  14.4 °C 30.1in /  1017.8hPa North 3.1mph /  5.0km/h 10.7mph /  17.2km/h 63% 0in /  0.0mm 0 W/m2
21:28 71.1 °F /  21.7 °C 57.9 °F /  14.4 °C 30.1in /  1017.8hPa Calm   9.2mph /  14.8km/h 63% 0in /  0.0mm 0 W/m2
21:33 71.1 °F /  21.7 °C 57.9 °F /  14.4 °C 30.1in /  1017.8hPa North 3.8mph /  6.1km/h 10.7mph /  17.2km/h 63% 0in /  0.0mm 0 W/m2
21:38 70.9 °F /  21.6 °C 57.7 °F /  14.3 °C 30.1in /  1017.8hPa North 4.5mph /  7.2km/h 10.7mph /  17.2km/h 63% 0in /  0.0mm 0 W/m2
21:43 70.9 °F /  21.6 °C 58.1 °F /  14.5 °C 30.1in /  1018.2hPa North 5.4mph /  8.7km/h 9.8mph /  15.8km/h 64% 0in /  0.0mm 0 W/m2
21:49 70.7 °F /  21.5 °C 57.9 °F /  14.4 °C 30.1in /  1017.8hPa North 6mph /  9.7km/h 14.5mph /  23.3km/h 64% 0in /  0.0mm 0 W/m2
21:54 70.7 °F /  21.5 °C 57.9 °F /  14.4 °C 30.1in /  1018.2hPa North 6mph /  9.7km/h 14.5mph /  23.3km/h 64% 0in /  0.0mm 0 W/m2
21:59 70.5 °F /  21.4 °C 57.7 °F /  14.3 °C 30.1in /  1017.8hPa North 6.9mph /  11.1km/h 13mph /  20.9km/h 64% 0in /  0.0mm 0 W/m2
22:04 70.3 °F /  21.3 °C 57.9 °F /  14.4 °C 30.1in /  1017.8hPa North 3.8mph /  6.1km/h 13mph /  20.9km/h 65% 0in /  0.0mm 0 W/m2
22:09 70.3 °F /  21.3 °C 57.9 °F /  14.4 °C 30.1in /  1018.2hPa NNW 3.1mph /  5.0km/h 13mph /  20.9km/h 65% 0in /  0.0mm 0 W/m2
22:14 70.3 °F /  21.3 °C 57.9 °F /  14.4 °C 30.1in /  1018.2hPa North 7.6mph /  12.2km/h 13.6mph /  21.9km/h 65% 0in /  0.0mm 0 W/m2
22:19 70.3 °F /  21.3 °C 57.9 °F /  14.4 °C 30.1in /  1017.8hPa North 3.8mph /  6.1km/h 20.6mph /  33.1km/h 65% 0in /  0.0mm 0 W/m2
22:24 70.3 °F /  21.3 °C 57.9 °F /  14.4 °C 30.1in /  1017.5hPa North 2.2mph /  3.5km/h 20.6mph /  33.1km/h 65% 0in /  0.0mm 0 W/m2
22:29 70.2 °F /  21.2 °C 57.9 °F /  14.4 °C 30.1in /  1017.8hPa North 3.8mph /  6.1km/h 13.6mph /  21.9km/h 65% 0in /  0.0mm 0 W/m2
22:34 70 °F /  21.1 °C 57.7 °F /  14.3 °C 30.1in /  1017.8hPa NNE 6.9mph /  11.1km/h 13mph /  20.9km/h 65% 0in /  0.0mm 0 W/m2
22:39 70 °F /  21.1 °C 57.7 °F /  14.3 °C 30.1in /  1018.2hPa North 6mph /  9.7km/h 15.9mph /  25.6km/h 65% 0in /  0.0mm 0 W/m2
22:44 70 °F /  21.1 °C 57.7 °F /  14.3 °C 30.1in /  1018.2hPa North 7.6mph /  12.2km/h 15.9mph /  25.6km/h 65% 0in /  0.0mm 0 W/m2
22:49 69.8 °F /  21.0 °C 57.6 °F /  14.2 °C 30.1in /  1018.2hPa North 8.3mph /  13.4km/h 16.8mph /  27.0km/h 65% 0in /  0.0mm 0 W/m2
22:54 69.8 °F /  21.0 °C 57.6 °F /  14.2 °C 30.1in /  1018.2hPa North 7.6mph /  12.2km/h 16.8mph /  27.0km/h 65% 0in /  0.0mm 0 W/m2
22:59 69.4 °F /  20.8 °C 57.6 °F /  14.2 °C 30.1in /  1017.8hPa North 5.4mph /  8.7km/h 14.5mph /  23.3km/h 66% 0in /  0.0mm 0 W/m2
23:04 69.3 °F /  20.7 °C 57.4 °F /  14.1 °C 30.1in /  1018.2hPa North 5.4mph /  8.7km/h 14.5mph /  23.3km/h 66% 0in /  0.0mm 0 W/m2
23:09 69.3 °F /  20.7 °C 57.4 °F /  14.1 °C 30.1in /  1018.2hPa NNE 3.1mph /  5.0km/h 13mph /  20.9km/h 66% 0in /  0.0mm 0 W/m2
23:14 69.3 °F /  20.7 °C 57 °F /  13.9 °C 30.1in /  1018.2hPa NNE 5.4mph /  8.7km/h 16.8mph /  27.0km/h 65% 0in /  0.0mm 0 W/m2
23:19 69.3 °F /  20.7 °C 57 °F /  13.9 °C 30.1in /  1018.2hPa NNW 4.5mph /  7.2km/h 16.8mph /  27.0km/h 65% 0in /  0.0mm 0 W/m2
23:24 69.3 °F /  20.7 °C 57 °F /  13.9 °C 30.1in /  1018.2hPa NNW 2.2mph /  3.5km/h 16.8mph /  27.0km/h 65% 0in /  0.0mm 0 W/m2
23:29 69.3 °F /  20.7 °C 57 °F /  13.9 °C 30.1in /  1018.5hPa North 4.5mph /  7.2km/h 14.5mph /  23.3km/h 65% 0in /  0.0mm 0 W/m2
23:34 69.3 °F /  20.7 °C 57 °F /  13.9 °C 30.1in /  1018.2hPa North 3.1mph /  5.0km/h 14.5mph /  23.3km/h 65% 0in /  0.0mm 0 W/m2
23:39 68.9 °F /  20.5 °C 57 °F /  13.9 °C 30.1in /  1018.2hPa NNW 5.4mph /  8.7km/h 11.4mph /  18.3km/h 66% 0in /  0.0mm 0 W/m2
23:44 68.9 °F /  20.5 °C 57 °F /  13.9 °C 30.1in /  1018.2hPa NNW 3.8mph /  6.1km/h 11.4mph /  18.3km/h 66% 0in /  0.0mm 0 W/m2
23:49 68.9 °F /  20.5 °C 57 °F /  13.9 °C 30.1in /  1018.2hPa NNW 6mph /  9.7km/h 13mph /  20.9km/h 66% 0in /  0.0mm 0 W/m2
23:54 68.7 °F /  20.4 °C 56.8 °F /  13.8 °C 30.1in /  1017.8hPa NNW 2.2mph /  3.5km/h 14.5mph /  23.3km/h 66% 0in /  0.0mm 0 W/m2
23:59 68.7 °F /  20.4 °C 56.5 °F /  13.6 °C 30.1in /  1017.8hPa NNW 5.4mph /  8.7km/h 14.5mph /  23.3km/h 65% 0in /  0.0mm 0 W/m2
Northern Hawkes Bay. New Zealand Historic Data
Compliments of Weather Underground - 2.25 mb